METAR Data
IDs: Format: Raw Decoded Include TAF

Data at: 0112 UTC 06 Dec 2019

METAR for:KCJR (Culpeper Rgnl, VA, US)
Text:KCJR 060055Z AUTO 00000KT 10SM CLR M01/M05 A3013 RMK AO2 T10111053
Temperature: -1.1°C ( 30°F)
Dewpoint: -5.3°C ( 22°F) [RH = 73%]
Pressure (altimeter):30.13 inches Hg (1020.4 mb)
Winds:calm
Visibility:10 or more sm (16+ km)
Ceiling:at least 12,000 feet AGL
Clouds:sky clear below 12,000 feet AGL
QC Flag:automated observation with no human augmentation